Mc Clusky, North Dakota
Current Conditions -  °F | °C
As of 8:35 PM on Saturday 25 Oct 2014 (Local Time) from K5H4 Reporting Station
Clear Clear  
Wind Chill: 40°   Ceiling: Unl
Heat Index: 45°   Visibility: 10mi
Dew Point: 27°   Wind: 8mph
Humidity: 49%   Direction: 160°SSE
Pressure: 30"   Gusts: NA
Location:  47.4796°N, 100.469°W
Report Text: K5H4 260135Z AUTO 16007KT 10SM CLR 07/M03 A3000 RMK AO2
Loading
Personal Weather Stations






























Interactive Weather Map
Tropical Storm Tracking
New forecast layout! Learn more

10-Day Weather Forecast

Advertisements
Track Severe Weather on mobile